Terminal Aerodrome Forecast
Issued by NWS

Home | Current Version | Previous Version | Text Only | Print | Product List | Glossary On
Versions: 1 2 3 4 5 6 7 8 9 10 11 12 13 14 15
284
FTUS46 KMTR 291731
TAFOAK
TAF
KOAK 291731Z 2918/3024 19008KT P6SM SCT015
     FM291900 27012G18KT P6SM FEW015
     FM292100 26018G24KT P6SM SKC
     FM300200 26020G28KT P6SM FEW015
     FM300500 25014G21KT P6SM SCT015
     FM300800 19004KT P6SM FEW015
     FM301700 26008KT P6SM SKC
     FM302000 28013KT P6SM SKC=

USA.gov is the U.S. government's official web portal to all federal, state and local government web resources and services.